Time;durP1;ratioP1;P1;durP2;ratioP2;P2;SDS_P1;SDS_P2;PMS_P1;PMS_P2;Temp;Humidity;BMP_temperature;BMP_pressure;BME280_temperature;BME280_humidity;BME280_pressure;Samples;Min_cycle;Max_cycle;Signal;HPM_P1;HPM_P2
2023/05/27 00:01:30;;;;;;;7.53;6.73;;;18.50;13.50;;;;;;5052941;28;20183;-47
2023/05/27 00:03:56;;;;;;;7.03;6.53;;;18.50;13.60;;;;;;5054367;28;20543;-47
2023/05/27 00:06:22;;;;;;;7.60;6.90;;;18.50;13.60;;;;;;5053427;28;20179;-47
2023/05/27 00:08:47;;;;;;;8.43;7.23;;;18.40;14.10;;;;;;5054174;28;20179;-48
2023/05/27 00:11:13;;;;;;;9.60;7.50;;;18.40;14.50;;;;;;5053422;28;20215;-47
2023/05/27 00:13:38;;;;;;;9.33;7.13;;;18.30;14.10;;;;;;5053375;28;20175;-52
2023/05/27 00:16:04;;;;;;;8.10;7.30;;;18.30;14.10;;;;;;5052589;28;20624;-50
2023/05/27 00:18:32;;;;;;;9.57;6.83;;;18.30;14.30;;;;;;5052289;28;20225;-51
2023/05/27 00:20:58;;;;;;;8.80;7.60;;;18.30;14.20;;;;;;5049976;28;20756;-49
2023/05/27 00:23:24;;;;;;;8.10;7.30;;;18.40;14.00;;;;;;5051720;28;20413;-46
2023/05/27 00:25:50;;;;;;;9.77;7.63;;;18.40;14.10;;;;;;5053126;28;20906;-48
2023/05/27 00:28:15;;;;;;;8.30;7.50;;;18.30;14.30;;;;;;5053303;28;20662;-51
2023/05/27 00:30:41;;;;;;;7.43;6.83;;;18.40;14.20;;;;;;5050838;28;20811;-49
2023/05/27 00:33:07;;;;;;;9.60;7.57;;;18.30;13.90;;;;;;5051564;28;20253;-50
2023/05/27 00:35:32;;;;;;;11.57;7.93;;;18.30;13.90;;;;;;5052351;28;20175;-47
2023/05/27 00:37:58;;;;;;;7.90;7.20;;;18.30;14.00;;;;;;5053978;28;20258;-48
2023/05/27 00:40:26;;;;;;;8.17;7.37;;;18.30;14.10;;;;;;5055240;28;20340;-47
2023/05/27 00:42:51;;;;;;;8.10;7.40;;;18.30;14.40;;;;;;5057331;28;20522;-45
2023/05/27 00:45:17;;;;;;;8.27;7.47;;;18.20;14.70;;;;;;5057292;28;20420;-47
2023/05/27 00:47:43;;;;;;;7.53;6.80;;;18.20;15.80;;;;;;5057098;28;20194;-44
2023/05/27 00:50:09;;;;;;;8.87;8.17;;;18.20;15.20;;;;;;5057225;28;20178;-47
2023/05/27 00:52:35;;;;;;;8.53;7.60;;;18.20;15.20;;;;;;5056249;28;20819;-48
2023/05/27 00:55:01;;;;;;;7.93;7.27;;;18.20;14.80;;;;;;5074173;28;20406;-47
2023/05/27 00:57:26;;;;;;;8.53;7.73;;;18.20;14.90;;;;;;5053798;28;20210;-48
2023/05/27 00:59:52;;;;;;;8.17;7.50;;;18.20;14.60;;;;;;5055083;28;20206;-50
2023/05/27 01:02:18;;;;;;;8.33;7.63;;;18.20;15.20;;;;;;5056488;28;20175;-46
2023/05/27 01:04:46;;;;;;;7.90;7.40;;;18.20;14.70;;;;;;5055940;28;20183;-46
2023/05/27 01:07:35;;;;;;;10.03;7.70;;;18.10;15.00;;;;;;5055062;28;20286;-45
2023/05/27 01:10:27;;;;;;;8.33;7.40;;;18.10;15.20;;;;;;5056673;28;20802;-47
2023/05/27 01:13:03;;;;;;;9.83;6.57;;;18.10;15.20;;;;;;5019336;28;20480;-49
2023/05/27 01:15:31;;;;;;;10.17;7.40;;;18.10;15.00;;;;;;5055003;28;20909;-47
2023/05/27 01:18:01;;;;;;;7.50;6.73;;;18.10;14.90;;;;;;5055180;28;20417;-49
2023/05/27 01:20:29;;;;;;;8.77;7.90;;;18.00;15.20;;;;;;5057260;28;20414;-46
2023/05/27 01:22:57;;;;;;;9.13;6.87;;;18.00;15.20;;;;;;5055856;28;20425;-49
2023/05/27 01:25:23;;;;;;;8.37;7.00;;;18.00;14.90;;;;;;5054582;28;20421;-47
2023/05/27 01:27:49;;;;;;;8.17;7.47;;;18.00;15.50;;;;;;5055485;28;20716;-48
2023/05/27 01:30:15;;;;;;;8.40;7.33;;;18.00;15.20;;;;;;5039868;28;20754;-46
2023/05/27 01:32:48;;;;;;;7.37;6.67;;;18.00;15.40;;;;;;5071748;28;20520;-45
2023/05/27 01:35:17;;;;;;;8.90;7.30;;;18.00;15.20;;;;;;5053887;28;20425;-45
2023/05/27 01:37:45;;;;;;;8.83;7.90;;;18.00;16.30;;;;;;5055174;28;20502;-48
2023/05/27 01:40:13;;;;;;;8.00;7.20;;;18.00;15.90;;;;;;5056228;28;20421;-46
2023/05/27 01:42:41;;;;;;;7.93;7.33;;;18.00;16.00;;;;;;5056237;28;20417;-48
2023/05/27 01:45:08;;;;;;;8.40;7.60;;;18.00;15.60;;;;;;5074927;28;21009;-46
2023/05/27 01:47:34;;;;;;;8.67;7.03;;;17.90;15.50;;;;;;5053538;28;20533;-47
2023/05/27 01:50:00;;;;;;;8.53;7.63;;;17.90;15.60;;;;;;5055128;28;20771;-50
2023/05/27 01:52:26;;;;;;;9.50;7.30;;;17.90;16.00;;;;;;5053980;28;20475;-48
2023/05/27 01:54:51;;;;;;;8.83;7.43;;;17.90;16.00;;;;;;5056767;28;20183;-50
2023/05/27 01:57:18;;;;;;;8.73;7.20;;;17.90;16.00;;;;;;5055223;28;20406;-51
2023/05/27 01:59:43;;;;;;;8.17;7.37;;;17.90;16.00;;;;;;5055038;28;20252;-49
2023/05/27 02:02:09;;;;;;;9.83;7.33;;;17.90;15.80;;;;;;5072712;28;20474;-52
2023/05/27 02:04:35;;;;;;;14.30;7.70;;;17.90;15.90;;;;;;5053374;28;20183;-52
2023/05/27 02:07:01;;;;;;;10.13;7.47;;;17.90;15.90;;;;;;5056480;28;20258;-46
2023/05/27 02:09:26;;;;;;;8.43;7.60;;;17.80;15.90;;;;;;5054872;28;20519;-49
2023/05/27 02:11:52;;;;;;;9.50;7.83;;;17.80;15.90;;;;;;5054717;28;20475;-50
2023/05/27 02:14:18;;;;;;;8.27;7.13;;;17.80;15.90;;;;;;5053991;28;20186;-46
2023/05/27 02:16:44;;;;;;;8.50;7.40;;;17.80;16.20;;;;;;5054519;28;20226;-49
2023/05/27 02:19:10;;;;;;;8.40;7.70;;;17.70;16.60;;;;;;5055515;28;20417;-45
2023/05/27 02:21:35;;;;;;;8.63;7.60;;;17.60;16.60;;;;;;5054006;28;20183;-43
2023/05/27 02:24:02;;;;;;;9.53;8.63;;;17.60;16.80;;;;;;5052106;28;20214;-46
2023/05/27 02:26:28;;;;;;;8.50;7.90;;;17.60;17.20;;;;;;5053817;28;20250;-45
2023/05/27 02:28:53;;;;;;;9.10;8.40;;;17.60;16.90;;;;;;5056067;28;20418;-48
2023/05/27 02:31:19;;;;;;;8.57;7.67;;;17.60;16.60;;;;;;5053633;28;20979;-50
2023/05/27 02:33:45;;;;;;;8.53;7.77;;;17.60;16.60;;;;;;5052305;28;20171;-46
2023/05/27 02:36:11;;;;;;;12.20;8.83;;;17.70;16.70;;;;;;5054245;28;20414;-47
2023/05/27 02:38:37;;;;;;;8.40;7.33;;;17.60;16.80;;;;;;5054776;28;20463;-47
2023/05/27 02:41:03;;;;;;;10.67;7.93;;;17.60;16.80;;;;;;5054961;28;20643;-49
2023/05/27 02:43:29;;;;;;;11.33;8.00;;;17.60;16.80;;;;;;5053694;28;20179;-50
2023/05/27 02:45:54;;;;;;;8.93;8.10;;;17.60;16.90;;;;;;5054183;28;20180;-46
2023/05/27 02:48:20;;;;;;;12.40;8.03;;;17.60;16.90;;;;;;5053942;28;20182;-49
2023/05/27 02:50:46;;;;;;;11.33;8.77;;;17.60;17.00;;;;;;5053343;28;20182;-50
2023/05/27 02:53:11;;;;;;;9.30;8.27;;;17.50;17.10;;;;;;5053041;28;20222;-48
2023/05/27 02:55:37;;;;;;;9.50;7.60;;;17.50;17.00;;;;;;5051803;28;20187;-49
2023/05/27 02:58:05;;;;;;;10.03;7.83;;;17.50;17.20;;;;;;5053656;28;20282;-46
2023/05/27 03:00:32;;;;;;;10.27;7.93;;;17.40;17.10;;;;;;5052810;28;20186;-51
2023/05/27 03:02:58;;;;;;;10.90;8.60;;;17.40;17.20;;;;;;5052724;28;20418;-45
2023/05/27 03:05:23;;;;;;;10.10;8.13;;;17.40;17.30;;;;;;5052094;28;20429;-51
2023/05/27 03:07:49;;;;;;;9.30;8.30;;;17.40;17.30;;;;;;5052014;28;20210;-50
2023/05/27 03:10:14;;;;;;;8.07;7.50;;;17.30;17.50;;;;;;5054191;28;20635;-47
2023/05/27 03:12:40;;;;;;;8.23;7.50;;;17.40;17.50;;;;;;5052775;28;20225;-47
2023/05/27 03:15:06;;;;;;;9.70;8.40;;;17.30;17.50;;;;;;5055251;28;20184;-50
2023/05/27 03:17:35;;;;;;;9.17;7.20;;;17.30;17.60;;;;;;5049556;28;20206;-47
2023/05/27 03:20:00;;;;;;;9.80;8.07;;;17.30;17.60;;;;;;5054132;28;20449;-46
2023/05/27 03:22:26;;;;;;;9.30;8.50;;;17.30;17.50;;;;;;5053538;28;20441;-51
2023/05/27 03:24:53;;;;;;;8.60;7.80;;;17.30;17.50;;;;;;5052297;28;20191;-50
2023/05/27 03:27:20;;;;;;;8.50;7.73;;;17.30;17.90;;;;;;5052181;28;20248;-51
2023/05/27 03:29:46;;;;;;;11.70;8.87;;;17.20;18.10;;;;;;5053945;28;20433;-48
2023/05/27 03:32:12;;;;;;;11.80;8.93;;;17.20;17.90;;;;;;5051205;28;20465;-51
2023/05/27 03:34:38;;;;;;;12.60;8.83;;;17.20;17.90;;;;;;5053934;28;20651;-48
2023/05/27 03:37:03;;;;;;;9.93;7.67;;;17.20;18.40;;;;;;5051740;28;20417;-47
2023/05/27 03:39:29;;;;;;;9.50;8.50;;;17.20;18.20;;;;;;5050797;28;20171;-50
2023/05/27 03:41:55;;;;;;;8.50;7.80;;;17.20;18.40;;;;;;5050597;28;20171;-49
2023/05/27 03:44:21;;;;;;;8.30;7.50;;;17.10;19.00;;;;;;5053048;28;20302;-51
2023/05/27 03:46:46;;;;;;;13.57;7.57;;;17.00;18.60;;;;;;5052014;28;20587;-47
2023/05/27 03:49:12;;;;;;;9.23;8.13;;;17.00;18.80;;;;;;5050285;28;20179;-49
2023/05/27 03:51:38;;;;;;;9.73;8.60;;;16.70;19.50;;;;;;5052370;28;20229;-46
2023/05/27 03:54:03;;;;;;;9.20;8.37;;;16.60;19.40;;;;;;5054187;28;20187;-48
2023/05/27 03:56:29;;;;;;;9.57;8.10;;;16.70;19.50;;;;;;5051926;28;20651;-47
2023/05/27 03:58:56;;;;;;;9.53;8.57;;;16.80;19.50;;;;;;5051692;28;20574;-46
2023/05/27 04:01:21;;;;;;;10.50;9.43;;;16.80;19.50;;;;;;5052042;28;20530;-50
2023/05/27 04:03:48;;;;;;;10.33;9.37;;;16.80;19.50;;;;;;5053819;28;20512;-50
2023/05/27 04:06:13;;;;;;;9.33;8.43;;;16.70;19.50;;;;;;5054052;28;20175;-47
2023/05/27 04:08:40;;;;;;;11.67;9.93;;;16.40;19.80;;;;;;5053786;28;20749;-45
2023/05/27 04:11:10;;;;;;;9.27;8.53;;;16.40;20.30;;;;;;5052363;28;20278;-50
2023/05/27 04:13:35;;;;;;;9.70;8.70;;;16.40;20.30;;;;;;5052591;28;20928;-53
2023/05/27 04:16:01;;;;;;;9.00;7.87;;;16.30;20.40;;;;;;5052312;28;20418;-45
2023/05/27 04:18:26;;;;;;;9.10;8.27;;;16.40;20.30;;;;;;5051212;28;20175;-46
2023/05/27 04:20:52;;;;;;;10.03;8.93;;;16.50;20.10;;;;;;5052302;28;20183;-45
2023/05/27 04:23:18;;;;;;;8.90;8.20;;;16.50;20.90;;;;;;5050983;28;20561;-48
2023/05/27 04:25:44;;;;;;;10.10;9.13;;;16.60;20.60;;;;;;5051468;28;20941;-48
2023/05/27 04:28:10;;;;;;;12.97;9.57;;;16.60;19.80;;;;;;5053284;28;20178;-47
2023/05/27 04:30:36;;;;;;;10.80;8.47;;;16.70;19.80;;;;;;5053275;28;20183;-43
2023/05/27 04:33:02;;;;;;;10.00;8.50;;;16.70;19.70;;;;;;5051853;28;20494;-48
2023/05/27 04:35:31;;;;;;;10.40;9.40;;;16.60;20.30;;;;;;5054095;28;20993;-45
2023/05/27 04:37:58;;;;;;;13.23;10.10;;;16.70;21.40;;;;;;5050544;28;20427;-44
2023/05/27 04:40:24;;;;;;;9.20;8.50;;;16.70;21.20;;;;;;5051859;28;20413;-45
2023/05/27 04:42:50;;;;;;;8.97;8.07;;;16.80;20.80;;;;;;5052109;28;20516;-48
2023/05/27 04:45:16;;;;;;;9.23;8.43;;;16.70;20.30;;;;;;5050717;28;20424;-46
2023/05/27 04:47:42;;;;;;;9.80;8.90;;;16.80;19.70;;;;;;5051351;28;20175;-52
2023/05/27 04:50:10;;;;;;;10.67;8.40;;;16.70;19.50;;;;;;5049415;28;20405;-46
2023/05/27 04:52:40;;;;;;;16.10;8.37;;;16.40;20.60;;;;;;5049410;28;20532;-46
2023/05/27 04:55:08;;;;;;;9.53;8.47;;;16.20;21.10;;;;;;5051585;28;20843;-48
2023/05/27 04:57:35;;;;;;;10.33;9.27;;;16.30;21.30;;;;;;5052658;28;20413;-47
2023/05/27 05:02:38;;;;;;;9.83;8.77;;;16.50;20.80;;;;;;5070128;28;20409;-45
2023/05/27 05:05:14;;;;;;;13.50;9.07;;;16.40;20.90;;;;;;5053719;28;20425;-48
2023/05/27 05:07:41;;;;;;;12.80;9.40;;;16.10;21.60;;;;;;5053615;28;20428;-49
2023/05/27 05:10:11;;;;;;;13.23;9.80;;;16.10;21.60;;;;;;5053352;28;20433;-47
2023/05/27 05:12:37;;;;;;;10.57;9.07;;;16.30;21.30;;;;;;5050448;28;20891;-47
2023/05/27 05:15:04;;;;;;;13.23;9.00;;;16.30;21.30;;;;;;5052629;28;20513;-46
2023/05/27 05:17:30;;;;;;;9.80;8.80;;;16.30;21.30;;;;;;5052541;28;20429;-49
2023/05/27 05:19:55;;;;;;;10.53;9.50;;;16.30;21.30;;;;;;5053486;28;20417;-44
2023/05/27 05:22:24;;;;;;;13.23;8.90;;;16.40;21.60;;;;;;5051167;28;20259;-46
2023/05/27 05:24:50;;;;;;;13.30;9.90;;;16.40;21.10;;;;;;5051828;28;20186;-48
2023/05/27 05:27:16;;;;;;;10.30;8.80;;;16.30;20.90;;;;;;5056380;28;20409;-44
2023/05/27 05:29:41;;;;;;;12.47;10.37;;;16.40;21.10;;;;;;5055253;28;21005;-51
2023/05/27 05:32:10;;;;;;;10.30;9.40;;;16.30;21.20;;;;;;5056663;28;20210;-49
2023/05/27 05:34:36;;;;;;;10.30;9.17;;;16.40;21.70;;;;;;5053963;28;20546;-47
2023/05/27 05:37:02;;;;;;;10.13;9.23;;;16.40;22.40;;;;;;5056505;28;20402;-46
2023/05/27 05:39:27;;;;;;;15.17;9.77;;;16.50;22.00;;;;;;5055260;28;20258;-46
2023/05/27 05:41:53;;;;;;;9.97;9.07;;;16.50;22.10;;;;;;5056165;28;20746;-48
2023/05/27 05:44:19;;;;;;;10.13;9.13;;;16.50;22.20;;;;;;5054771;28;20180;-48
2023/05/27 05:46:44;;;;;;;11.40;9.30;;;16.50;22.10;;;;;;5056422;28;20656;-53
2023/05/27 05:49:10;;;;;;;10.30;8.43;;;16.50;21.70;;;;;;5056961;28;20310;-48
2023/05/27 05:51:36;;;;;;;9.97;9.03;;;16.50;21.50;;;;;;5055174;28;20679;-49
2023/05/27 05:54:01;;;;;;;10.80;9.10;;;16.60;22.20;;;;;;5063041;28;20171;-45
2023/05/27 05:56:27;;;;;;;11.60;8.70;;;16.60;21.40;;;;;;5063948;28;20550;-49
2023/05/27 05:58:53;;;;;;;12.97;9.47;;;16.60;21.50;;;;;;5066440;28;20179;-46
2023/05/27 06:01:19;;;;;;;11.27;9.67;;;16.70;21.30;;;;;;5071877;28;20414;-46
2023/05/27 06:03:45;;;;;;;9.87;8.77;;;16.60;20.50;;;;;;5073312;28;20713;-50
2023/05/27 06:06:11;;;;;;;10.00;9.00;;;16.50;21.00;;;;;;5072778;28;20183;-44
2023/05/27 06:08:36;;;;;;;10.63;9.57;;;16.50;21.30;;;;;;5073469;28;20426;-46
2023/05/27 06:11:02;;;;;;;9.77;9.00;;;16.60;21.00;;;;;;5072443;28;20193;-49
2023/05/27 06:13:28;;;;;;;10.43;9.17;;;16.60;21.70;;;;;;5073605;28;20211;-47
2023/05/27 06:15:55;;;;;;;12.23;9.20;;;16.70;21.10;;;;;;5055712;28;20473;-46
2023/05/27 06:18:21;;;;;;;10.03;9.00;;;16.70;22.40;;;;;;5074612;28;20171;-48
2023/05/27 06:20:47;;;;;;;10.47;9.37;;;16.80;20.60;;;;;;5074624;28;20419;-47
2023/05/27 06:23:12;;;;;;;11.10;10.03;;;16.80;21.10;;;;;;5075619;28;20417;-45
2023/05/27 06:25:38;;;;;;;11.47;9.90;;;16.90;21.30;;;;;;5075583;28;20218;-45
2023/05/27 06:28:04;;;;;;;10.00;9.10;;;16.90;21.70;;;;;;5075487;28;20302;-44
2023/05/27 06:30:32;;;;;;;10.70;9.70;;;17.00;21.90;;;;;;5076306;28;20179;-46
2023/05/27 06:32:57;;;;;;;10.57;9.40;;;17.10;20.10;;;;;;5074206;28;20293;-45
2023/05/27 06:35:23;;;;;;;10.90;9.83;;;17.10;22.10;;;;;;5075117;28;20567;-47
2023/05/27 06:37:49;;;;;;;10.67;9.67;;;17.10;21.50;;;;;;5075569;28;20182;-50
2023/05/27 06:40:14;;;;;;;10.13;9.27;;;17.10;20.00;;;;;;5074576;28;20263;-49
2023/05/27 06:42:40;;;;;;;11.67;9.87;;;17.10;19.80;;;;;;5073042;28;20186;-57
2023/05/27 06:45:06;;;;;;;10.70;9.80;;;17.10;19.70;;;;;;5063963;28;20193;-54
2023/05/27 06:47:32;;;;;;;11.40;10.20;;;17.00;19.70;;;;;;5055933;28;20183;-49
2023/05/27 06:49:57;;;;;;;9.07;8.37;;;17.00;20.10;;;;;;5056206;28;20421;-51
2023/05/27 06:52:24;;;;;;;10.80;10.00;;;17.10;21.30;;;;;;5054326;28;20261;-45
2023/05/27 06:54:49;;;;;;;11.53;9.30;;;17.20;22.10;;;;;;5055954;28;20176;-47
2023/05/27 06:57:15;;;;;;;14.57;9.23;;;17.30;21.60;;;;;;5054304;28;20745;-51
2023/05/27 06:59:41;;;;;;;9.90;9.10;;;17.30;21.00;;;;;;5054588;28;20640;-45
2023/05/27 07:02:06;;;;;;;10.40;9.40;;;17.30;20.20;;;;;;5054635;28;20175;-43
2023/05/27 07:04:33;;;;;;;11.40;10.40;;;17.40;21.50;;;;;;5055071;28;20232;-43
2023/05/27 07:06:58;;;;;;;10.60;9.73;;;17.30;20.90;;;;;;5053697;28;20632;-45
2023/05/27 07:09:24;;;;;;;10.70;9.60;;;17.30;20.90;;;;;;5054439;28;20467;-45
2023/05/27 07:11:50;;;;;;;12.23;9.47;;;17.30;20.30;;;;;;5054484;28;20293;-44
2023/05/27 07:14:16;;;;;;;12.00;10.80;;;17.30;19.90;;;;;;5054619;28;20538;-48
2023/05/27 07:16:42;;;;;;;9.30;8.60;;;17.30;20.30;;;;;;5055030;28;20262;-47
2023/05/27 07:19:07;;;;;;;10.40;9.50;;;17.30;19.90;;;;;;5055224;28;20179;-45
2023/05/27 07:21:33;;;;;;;10.27;9.47;;;17.40;20.60;;;;;;5072606;28;20417;-46
2023/05/27 07:24:03;;;;;;;10.07;9.00;;;17.40;20.30;;;;;;5055133;28;20179;-43
2023/05/27 07:26:30;;;;;;;13.37;11.33;;;17.50;21.10;;;;;;5054957;28;20639;-45
2023/05/27 07:28:58;;;;;;;11.80;10.70;;;17.60;20.10;;;;;;5054015;28;20417;-48
2023/05/27 07:31:24;;;;;;;9.73;8.83;;;17.60;20.10;;;;;;5052644;28;20425;-48
2023/05/27 07:33:50;;;;;;;10.00;9.10;;;17.50;20.00;;;;;;5055785;28;20997;-46
2023/05/27 07:36:15;;;;;;;11.20;9.97;;;17.50;20.90;;;;;;5056570;28;20525;-44
2023/05/27 07:38:41;;;;;;;10.80;9.80;;;17.50;20.40;;;;;;5070713;28;20171;-47
2023/05/27 07:41:06;;;;;;;10.37;9.50;;;17.60;19.90;;;;;;5070790;28;20179;-47
2023/05/27 07:43:32;;;;;;;11.10;10.10;;;17.60;20.10;;;;;;5070799;28;20385;-51
2023/05/27 07:45:57;;;;;;;11.73;10.93;;;17.70;20.90;;;;;;5063586;28;20179;-46
2023/05/27 07:48:23;;;;;;;11.93;10.23;;;17.70;20.70;;;;;;5053536;28;20182;-46
2023/05/27 07:50:49;;;;;;;12.07;10.07;;;17.70;19.90;;;;;;5054827;28;20175;-43
2023/05/27 07:53:14;;;;;;;12.13;11.20;;;17.80;19.60;;;;;;5058712;28;20202;-45
2023/05/27 07:55:40;;;;;;;12.63;10.93;;;17.70;20.10;;;;;;5054319;28;20182;-45
2023/05/27 07:58:06;;;;;;;11.13;10.27;;;17.70;19.80;;;;;;5048480;28;20203;-47
2023/05/27 08:00:32;;;;;;;12.80;10.80;;;17.80;20.20;;;;;;5053764;28;20194;-46
2023/05/27 08:02:58;;;;;;;11.17;10.27;;;17.80;19.80;;;;;;5053567;28;20183;-49
2023/05/27 08:05:23;;;;;;;11.70;10.70;;;17.80;20.20;;;;;;5051701;28;20429;-45
2023/05/27 08:07:49;;;;;;;10.73;9.83;;;17.80;19.70;;;;;;5054085;28;20201;-47
2023/05/27 08:10:15;;;;;;;11.70;10.27;;;18.00;18.90;;;;;;5053082;28;20226;-44
2023/05/27 08:12:41;;;;;;;11.37;10.30;;;18.10;18.80;;;;;;5051963;28;20557;-47
2023/05/27 08:15:07;;;;;;;10.73;9.97;;;18.20;19.40;;;;;;5063652;28;20183;-47
2023/05/27 08:17:32;;;;;;;11.10;9.80;;;18.20;19.70;;;;;;5069848;28;20179;-48
2023/05/27 08:19:58;;;;;;;13.53;10.40;;;18.20;18.70;;;;;;5054019;28;20405;-44
2023/05/27 08:22:24;;;;;;;11.80;11.00;;;18.30;19.50;;;;;;5052976;28;20175;-45
2023/05/27 08:24:49;;;;;;;11.70;10.87;;;18.40;19.00;;;;;;5053831;28;20591;-51
2023/05/27 08:27:16;;;;;;;12.07;11.17;;;18.40;18.20;;;;;;5053228;28;20181;-51
2023/05/27 08:29:42;;;;;;;11.30;10.60;;;18.50;18.10;;;;;;5053594;28;20179;-47
2023/05/27 08:32:08;;;;;;;10.70;9.60;;;18.60;17.90;;;;;;5053110;28;20531;-46
2023/05/27 08:34:34;;;;;;;11.53;10.53;;;18.80;17.60;;;;;;5052353;28;20413;-44
2023/05/27 08:37:00;;;;;;;11.20;10.40;;;18.90;17.50;;;;;;5053174;28;20719;-48
2023/05/27 08:39:26;;;;;;;11.70;10.50;;;19.00;17.60;;;;;;5053265;28;20540;-51
2023/05/27 08:41:53;;;;;;;11.60;9.60;;;19.10;17.40;;;;;;5051920;28;20417;-49
2023/05/27 08:44:21;;;;;;;10.07;9.20;;;19.10;17.70;;;;;;5053685;28;20405;-49
2023/05/27 08:46:48;;;;;;;11.83;10.63;;;19.20;17.20;;;;;;5053438;28;20452;-49
2023/05/27 08:49:14;;;;;;;12.20;11.10;;;19.40;16.40;;;;;;5053381;28;20425;-49
2023/05/27 08:51:40;;;;;;;9.67;8.80;;;19.30;16.20;;;;;;5052580;28;20457;-48
2023/05/27 08:54:08;;;;;;;10.17;9.37;;;19.30;16.50;;;;;;5053736;28;20171;-47
2023/05/27 08:56:35;;;;;;;11.93;10.93;;;19.30;16.60;;;;;;5053396;28;20896;-47
2023/05/27 08:59:01;;;;;;;11.40;10.00;;;19.40;16.90;;;;;;5053549;28;20413;-49
2023/05/27 09:01:27;;;;;;;9.80;9.10;;;19.50;16.80;;;;;;5055709;28;20413;-47
2023/05/27 09:03:55;;;;;;;10.97;9.97;;;19.60;16.20;;;;;;5057261;28;20504;-49
2023/05/27 09:06:21;;;;;;;10.70;9.90;;;19.50;16.60;;;;;;5075397;28;20832;-47
2023/05/27 09:08:46;;;;;;;10.43;9.63;;;19.50;17.00;;;;;;5075159;28;20441;-49
2023/05/27 09:11:23;;;;;;;10.53;9.93;;;19.60;16.50;;;;;;5056873;28;20534;-50
2023/05/27 09:13:49;;;;;;;10.73;9.93;;;19.80;16.00;;;;;;5057561;28;20602;-48
2023/05/27 09:16:20;;;;;;;11.00;10.07;;;20.10;15.70;;;;;;5057580;28;20406;-44
2023/05/27 09:18:46;;;;;;;11.10;10.10;;;20.30;15.30;;;;;;5057467;28;20172;-44
2023/05/27 09:21:11;;;;;;;8.97;8.47;;;20.30;15.00;;;;;;5056760;28;20416;-49
2023/05/27 09:23:38;;;;;;;10.13;9.43;;;20.40;14.90;;;;;;5057091;28;20203;-48
2023/05/27 09:26:12;;;;;;;11.23;10.37;;;20.50;14.90;;;;;;5057197;28;20652;-44
2023/05/27 09:28:39;;;;;;;11.40;10.40;;;20.60;14.90;;;;;;5055181;28;20422;-51
2023/05/27 09:31:07;;;;;;;11.40;10.23;;;20.60;14.80;;;;;;5056546;28;20425;-46
2023/05/27 09:33:35;;;;;;;10.70;9.90;;;20.70;14.50;;;;;;5055424;28;20472;-50
2023/05/27 09:36:05;;;;;;;11.50;9.30;;;20.70;14.40;;;;;;5056208;28;20972;-50
2023/05/27 09:38:31;;;;;;;10.50;9.47;;;20.80;14.40;;;;;;5073701;28;20424;-49
2023/05/27 09:40:58;;;;;;;9.97;9.00;;;21.10;13.80;;;;;;5056118;28;20795;-47
2023/05/27 09:43:25;;;;;;;11.53;10.50;;;21.20;13.90;;;;;;5053836;28;20460;-50
2023/05/27 09:45:57;;;;;;;11.20;10.20;;;21.20;13.90;;;;;;5036517;28;20770;-45
2023/05/27 09:48:25;;;;;;;10.30;9.57;;;21.50;14.10;;;;;;5069135;28;20419;-49
2023/05/27 09:50:52;;;;;;;10.47;9.70;;;21.60;13.60;;;;;;5036388;28;20505;-49
2023/05/27 09:53:21;;;;;;;11.07;10.23;;;21.80;13.40;;;;;;5035252;28;20515;-48
2023/05/27 09:55:48;;;;;;;9.97;9.37;;;21.90;12.90;;;;;;5069386;28;20505;-50
2023/05/27 09:58:14;;;;;;;11.70;10.60;;;22.20;12.30;;;;;;5036482;28;20828;-49
2023/05/27 10:00:41;;;;;;;11.73;10.63;;;22.20;12.60;;;;;;5070255;28;20939;-45
2023/05/27 10:03:07;;;;;;;11.87;11.00;;;22.30;12.70;;;;;;5069629;28;20786;-45
2023/05/27 10:05:33;;;;;;;10.40;9.67;;;22.40;13.20;;;;;;5070241;28;20517;-48
2023/05/27 10:07:59;;;;;;;11.30;10.50;;;22.40;13.10;;;;;;5036492;28;20464;-49
2023/05/27 10:10:25;;;;;;;11.20;10.20;;;22.40;13.00;;;;;;5069852;28;20453;-45
2023/05/27 10:12:53;;;;;;;10.63;9.93;;;22.40;13.10;;;;;;5068496;28;20702;-49
2023/05/27 10:15:31;;;;;;;10.40;9.80;;;22.50;11.80;;;;;;5036441;28;20175;-50
2023/05/27 10:18:10;;;;;;;11.40;10.57;;;22.70;11.50;;;;;;5053884;28;20448;-51
2023/05/27 10:20:42;;;;;;;10.30;9.27;;;22.80;12.10;;;;;;5047722;28;20417;-53
2023/05/27 10:23:25;;;;;;;11.17;10.30;;;23.00;11.70;;;;;;5055909;28;20464;-52
2023/05/27 10:25:53;;;;;;;11.10;10.20;;;23.00;11.20;;;;;;5056303;28;20905;-46
2023/05/27 10:28:35;;;;;;;11.87;10.97;;;23.20;10.80;;;;;;5055825;28;20482;-48
2023/05/27 10:31:10;;;;;;;10.90;10.10;;;23.20;10.80;;;;;;5054287;28;20440;-46
2023/05/27 10:33:37;;;;;;;10.37;9.80;;;23.20;10.80;;;;;;5054190;28;20831;-45
2023/05/27 10:36:10;;;;;;;10.73;9.90;;;23.30;11.10;;;;;;5055687;28;20923;-47
2023/05/27 10:38:37;;;;;;;10.53;9.83;;;23.30;10.90;;;;;;5055024;28;20410;-50
2023/05/27 10:41:05;;;;;;;11.80;10.90;;;23.40;10.80;;;;;;5054851;28;20422;-51
2023/05/27 10:43:32;;;;;;;12.07;10.60;;;23.30;10.90;;;;;;5055239;28;20448;-48
2023/05/27 10:46:12;;;;;;;11.40;10.60;;;23.30;10.90;;;;;;5055890;28;20739;-47
2023/05/27 10:48:41;;;;;;;11.37;10.37;;;23.30;10.90;;;;;;5055786;28;20504;-53
2023/05/27 10:51:08;;;;;;;10.23;9.63;;;23.30;10.90;;;;;;5055239;28;20453;-47
2023/05/27 10:53:36;;;;;;;10.43;9.83;;;23.40;10.20;;;;;;5055335;28;20483;-50
2023/05/27 10:56:02;;;;;;;11.57;10.50;;;23.30;10.20;;;;;;5055673;28;20898;-46
2023/05/27 10:58:28;;;;;;;12.13;10.93;;;23.40;10.30;;;;;;5055123;28;20422;-49
2023/05/27 11:00:56;;;;;;;9.80;9.20;;;23.40;10.40;;;;;;5055489;28;20705;-52
2023/05/27 11:03:29;;;;;;;10.40;9.60;;;23.50;10.30;;;;;;5054569;28;20421;-47
2023/05/27 11:06:02;;;;;;;10.53;9.57;;;23.50;10.00;;;;;;5055424;28;20405;-48
2023/05/27 11:08:29;;;;;;;9.50;8.60;;;23.50;10.10;;;;;;5055298;28;20516;-49
2023/05/27 11:11:04;;;;;;;9.43;8.57;;;23.50;10.50;;;;;;5055177;28;20433;-50
2023/05/27 11:13:44;;;;;;;10.27;8.90;;;23.40;10.70;;;;;;5054934;28;20908;-49
2023/05/27 11:16:12;;;;;;;10.73;9.70;;;23.40;9.90;;;;;;5055237;28;20431;-52
2023/05/27 11:18:42;;;;;;;9.53;8.93;;;23.40;9.80;;;;;;5054993;28;20440;-48
2023/05/27 11:21:10;;;;;;;9.63;8.73;;;23.30;10.60;;;;;;5054690;28;20413;-50
2023/05/27 11:23:40;;;;;;;11.20;9.03;;;23.20;10.50;;;;;;5054754;28;20432;-50
2023/05/27 11:26:15;;;;;;;10.37;9.63;;;23.30;9.60;;;;;;5055168;28;20494;-48
2023/05/27 11:28:57;;;;;;;9.80;9.10;;;23.30;9.30;;;;;;5054908;28;20532;-51
2023/05/27 11:31:33;;;;;;;10.00;9.20;;;23.30;9.00;;;;;;5054253;28;20459;-47
2023/05/27 11:33:59;;;;;;;11.60;9.90;;;23.30;8.60;;;;;;5072882;28;20429;-47
2023/05/27 11:36:27;;;;;;;9.53;8.70;;;23.30;8.70;;;;;;5054836;28;20936;-49
2023/05/27 11:38:59;;;;;;;10.87;9.80;;;23.40;8.70;;;;;;5054851;28;20410;-49
2023/05/27 11:41:27;;;;;;;10.40;9.40;;;23.50;8.30;;;;;;5054153;28;20418;-47
2023/05/27 11:44:00;;;;;;;10.43;9.53;;;23.50;8.40;;;;;;5054711;28;20432;-49
2023/05/27 11:46:45;;;;;;;10.30;9.47;;;23.50;8.50;;;;;;5054812;28;20436;-52
2023/05/27 11:49:14;;;;;;;10.43;9.73;;;23.40;9.40;;;;;;5054717;28;20520;-52
2023/05/27 11:51:41;;;;;;;9.53;8.77;;;23.40;8.80;;;;;;5053930;28;20533;-48
2023/05/27 11:54:07;;;;;;;9.50;8.63;;;23.30;9.70;;;;;;5054649;28;20460;-45
2023/05/27 11:56:33;;;;;;;10.37;9.60;;;23.40;8.80;;;;;;5054428;28;20505;-45
2023/05/27 11:58:59;;;;;;;11.13;10.10;;;23.60;9.00;;;;;;5054440;28;20402;-49
2023/05/27 12:01:26;;;;;;;10.00;9.07;;;23.50;8.60;;;;;;5053687;28;20413;-52
2023/05/27 12:03:51;;;;;;;9.03;8.33;;;23.50;8.00;;;;;;5054533;28;20446;-52
2023/05/27 12:06:17;;;;;;;9.40;8.80;;;23.60;7.50;;;;;;5072284;28;20425;-52
2023/05/27 12:08:43;;;;;;;9.73;8.93;;;23.60;7.60;;;;;;5054285;28;20171;-50
2023/05/27 12:11:09;;;;;;;9.93;9.13;;;23.50;7.50;;;;;;5053787;28;20744;-53
2023/05/27 12:13:35;;;;;;;9.00;8.50;;;23.60;7.90;;;;;;5053856;28;21049;-50
2023/05/27 12:16:02;;;;;;;10.00;9.27;;;23.50;7.90;;;;;;5072114;28;20260;-51
2023/05/27 12:18:28;;;;;;;10.07;9.37;;;23.50;7.50;;;;;;5054185;28;20184;-52
2023/05/27 12:20:54;;;;;;;9.50;8.77;;;23.80;7.60;;;;;;5054113;28;20418;-49
2023/05/27 12:23:20;;;;;;;10.37;9.47;;;23.70;7.60;;;;;;5053426;28;20639;-49
2023/05/27 12:25:45;;;;;;;9.90;9.30;;;23.70;7.10;;;;;;5053918;28;20655;-48
2023/05/27 12:28:11;;;;;;;10.03;9.23;;;23.50;7.80;;;;;;5054161;28;20229;-52
2023/05/27 12:30:37;;;;;;;8.77;8.13;;;23.50;8.10;;;;;;5054024;28;20171;-51
2023/05/27 12:33:04;;;;;;;10.80;10.10;;;23.70;7.60;;;;;;5053394;28;20646;-53
2023/05/27 12:35:30;;;;;;;11.30;10.20;;;23.90;7.90;;;;;;5053483;28;20259;-50
2023/05/27 12:37:57;;;;;;;10.07;9.17;;;23.90;6.80;;;;;;5053878;28;20430;-51
2023/05/27 12:40:23;;;;;;;10.70;9.67;;;23.90;6.80;;;;;;5053971;28;20902;-49
2023/05/27 12:42:49;;;;;;;10.07;9.00;;;23.90;6.80;;;;;;5053202;28;20425;-51